Time;durP1;ratioP1;P1;durP2;ratioP2;P2;SDS_P1;SDS_P2;PMS_P1;PMS_P2;Temp;Humidity;BMP_temperature;BMP_pressure;BME280_temperature;BME280_humidity;BME280_pressure;Samples;Min_cycle;Max_cycle;Signal;HPM_P1;HPM_P2
2021/08/17 00:00:28;;;;;;;7.20;5.00;;;14.80;99.90;;;;;;5029636;28;20634;-73
2021/08/17 00:03:13;;;;;;;8.33;3.37;;;14.80;99.90;;;;;;5015107;28;20588;-74
2021/08/17 00:06:01;;;;;;;5.50;3.60;;;14.80;99.90;;;;;;5015944;28;21054;-73
2021/08/17 00:08:47;;;;;;;6.43;3.73;;;14.80;99.90;;;;;;5029659;28;20461;-74
2021/08/17 00:11:34;;;;;;;8.90;3.90;;;14.60;99.90;;;;;;5031123;28;20463;-74
2021/08/17 00:14:20;;;;;;;8.43;3.50;;;14.50;99.90;;;;;;5021870;28;20442;-74
2021/08/17 00:17:08;;;;;;;6.32;3.58;;;14.50;99.90;;;;;;5022090;28;20475;-73
2021/08/17 00:19:54;;;;;;;8.80;4.40;;;14.50;99.90;;;;;;5020952;28;20571;-73
2021/08/17 00:22:40;;;;;;;8.20;5.00;;;14.30;99.90;;;;;;5029364;28;20987;-73
2021/08/17 00:25:26;;;;;;;6.43;4.27;;;14.30;99.90;;;;;;5014729;28;20463;-73
2021/08/17 00:28:13;;;;;;;5.60;3.60;;;14.20;99.90;;;;;;5022040;28;20968;-73
2021/08/17 00:30:59;;;;;;;4.77;2.90;;;14.20;99.90;;;;;;5031017;28;20425;-73
2021/08/17 00:33:44;;;;;;;8.67;4.33;;;14.10;99.90;;;;;;5025793;28;20557;-73
2021/08/17 00:36:30;;;;;;;7.47;3.90;;;14.10;99.90;;;;;;5023892;28;21038;-73
2021/08/17 00:39:16;;;;;;;6.67;4.27;;;14.20;99.90;;;;;;5029832;28;20454;-73
2021/08/17 00:42:04;;;;;;;8.37;4.50;;;14.20;99.90;;;;;;5024547;28;20397;-74
2021/08/17 00:44:51;;;;;;;13.70;4.00;;;14.20;99.90;;;;;;5026186;28;20804;-73
2021/08/17 00:47:37;;;;;;;6.27;3.43;;;14.10;99.90;;;;;;5018994;28;20581;-73
2021/08/17 00:50:23;;;;;;;9.47;4.53;;;14.20;99.90;;;;;;5029627;28;20480;-74
2021/08/17 00:53:09;;;;;;;8.20;3.70;;;14.10;99.90;;;;;;5025760;28;20471;-73
2021/08/17 00:55:55;;;;;;;9.83;3.83;;;14.00;99.90;;;;;;5026010;28;20478;-74
2021/08/17 00:58:41;;;;;;;7.13;4.40;;;13.80;99.90;;;;;;5020078;28;20480;-73
2021/08/17 01:01:28;;;;;;;10.67;4.93;;;13.60;99.90;;;;;;5026893;28;20472;-74
2021/08/17 01:04:14;;;;;;;7.23;4.53;;;13.60;99.90;;;;;;5017884;28;20428;-73
2021/08/17 01:06:59;;;;;;;10.20;4.07;;;13.50;99.90;;;;;;5024864;28;20589;-74
2021/08/17 01:09:45;;;;;;;8.67;3.83;;;13.50;99.90;;;;;;5026087;28;20201;-74
2021/08/17 01:12:31;;;;;;;7.50;3.95;;;13.50;99.90;;;;;;5026759;28;20949;-73
2021/08/17 01:15:16;;;;;;;12.43;3.63;;;13.60;99.90;;;;;;5022363;28;20236;-73
2021/08/17 01:18:06;;;;;;;7.13;3.30;;;13.70;99.90;;;;;;5028166;28;20842;-74
2021/08/17 01:20:54;;;;;;;5.90;3.50;;;13.80;99.90;;;;;;5030443;28;20379;-73
2021/08/17 01:23:39;;;;;;;8.33;4.10;;;13.80;99.90;;;;;;5029315;28;20594;-73
2021/08/17 01:26:26;;;;;;;5.87;3.70;;;13.70;99.90;;;;;;5027724;28;20437;-74
2021/08/17 01:29:15;;;;;;;8.57;4.27;;;13.70;99.90;;;;;;5020086;28;20450;-73
2021/08/17 01:32:00;;;;;;;5.00;3.30;;;13.80;99.90;;;;;;5018126;28;20546;-74
2021/08/17 01:34:46;;;;;;;10.27;4.40;;;13.70;99.90;;;;;;5028504;28;20440;-73
2021/08/17 01:37:32;;;;;;;5.40;3.63;;;13.70;99.90;;;;;;5030967;28;20988;-73
2021/08/17 01:40:18;;;;;;;4.90;3.40;;;13.70;99.90;;;;;;5029885;28;20459;-74
2021/08/17 01:43:05;;;;;;;6.50;4.07;;;13.60;99.90;;;;;;5022742;28;20461;-73
2021/08/17 01:45:56;;;;;;;6.67;3.73;;;13.50;99.90;;;;;;5023762;28;20455;-73
2021/08/17 01:48:42;;;;;;;6.37;3.43;;;13.40;99.90;;;;;;5056170;22;21010;-76
2021/08/17 01:51:28;;;;;;;6.70;3.40;;;13.30;99.90;;;;;;5046618;28;20474;-76
2021/08/17 01:54:15;;;;;;;15.30;4.20;;;13.10;99.90;;;;;;5045943;28;21069;-76
2021/08/17 01:57:01;;;;;;;7.13;3.30;;;13.00;99.90;;;;;;5041246;28;20539;-76
2021/08/17 01:59:48;;;;;;;9.10;3.97;;;13.00;99.90;;;;;;5048289;28;20476;-76
2021/08/17 02:02:34;;;;;;;6.70;3.90;;;13.10;99.90;;;;;;5043756;28;20453;-76
2021/08/17 02:05:21;;;;;;;8.98;3.78;;;13.10;99.90;;;;;;5047033;28;20936;-76
2021/08/17 02:08:08;;;;;;;8.98;4.60;;;13.10;99.90;;;;;;5048096;28;20423;-76
2021/08/17 02:10:53;;;;;;;5.27;3.77;;;13.20;99.90;;;;;;5052781;28;20735;-76
2021/08/17 02:13:39;;;;;;;5.97;3.90;;;13.10;99.90;;;;;;5048300;28;20453;-76
2021/08/17 02:16:26;;;;;;;11.33;4.20;;;13.10;99.90;;;;;;5052165;28;20477;-76
2021/08/17 02:19:12;;;;;;;8.10;4.00;;;13.10;99.90;;;;;;5045181;28;20523;-76
2021/08/17 02:21:58;;;;;;;10.07;4.10;;;13.10;99.90;;;;;;5048495;28;20475;-76
2021/08/17 02:24:43;;;;;;;9.83;4.23;;;13.20;99.90;;;;;;5043460;28;20528;-76
2021/08/17 02:27:33;;;;;;;6.60;4.23;;;13.10;99.90;;;;;;5041034;28;20544;-76
2021/08/17 02:30:19;;;;;;;5.93;3.90;;;13.00;99.90;;;;;;5052649;28;21040;-76
2021/08/17 02:33:07;;;;;;;6.90;4.00;;;12.90;99.90;;;;;;5046818;28;20455;-76
2021/08/17 02:35:53;;;;;;;8.77;4.00;;;13.00;99.90;;;;;;5051773;28;20460;-76
2021/08/17 02:38:38;;;;;;;8.27;3.47;;;13.00;99.90;;;;;;5048695;28;20454;-76
2021/08/17 02:41:23;;;;;;;6.83;3.77;;;12.90;99.90;;;;;;5057666;28;20552;-76
2021/08/17 02:44:09;;;;;;;9.40;4.20;;;12.90;99.90;;;;;;5041364;28;20826;-76
2021/08/17 02:46:55;;;;;;;13.60;4.50;;;12.80;99.90;;;;;;5044505;28;20446;-75
2021/08/17 02:49:41;;;;;;;6.00;3.80;;;12.80;99.90;;;;;;5051826;28;20472;-76
2021/08/17 02:52:28;;;;;;;6.77;4.13;;;12.90;99.90;;;;;;5051722;28;20462;-76
2021/08/17 02:55:13;;;;;;;10.33;4.30;;;12.90;99.90;;;;;;5044810;28;20989;-76
2021/08/17 02:58:01;;;;;;;9.70;4.80;;;13.00;99.90;;;;;;5041552;28;20439;-76
2021/08/17 03:00:46;;;;;;;16.23;4.93;;;13.10;99.90;;;;;;5046540;28;20430;-76
2021/08/17 03:03:32;;;;;;;10.73;5.30;;;13.10;99.90;;;;;;5041424;28;20442;-76
2021/08/17 03:06:19;;;;;;;9.27;4.82;;;13.10;99.90;;;;;;5044664;28;20964;-76
2021/08/17 03:09:04;;;;;;;6.77;4.40;;;13.20;99.90;;;;;;5046623;28;20299;-76
2021/08/17 03:11:50;;;;;;;6.87;4.70;;;13.40;99.90;;;;;;5046468;28;21001;-76
2021/08/17 03:14:36;;;;;;;7.73;4.37;;;13.30;99.90;;;;;;5048984;28;20454;-76
2021/08/17 03:17:21;;;;;;;5.87;3.87;;;13.30;99.90;;;;;;5047168;28;20448;-76
2021/08/17 03:20:09;;;;;;;8.00;4.60;;;13.20;99.90;;;;;;5038207;28;20444;-76
2021/08/17 03:22:56;;;;;;;6.67;4.37;;;13.20;99.90;;;;;;5050064;28;20804;-76
2021/08/17 03:25:42;;;;;;;9.70;4.17;;;13.30;99.90;;;;;;5043981;28;20422;-76
2021/08/17 03:28:28;;;;;;;9.20;4.20;;;13.40;99.90;;;;;;5050615;28;20472;-77
2021/08/17 03:31:13;;;;;;;17.90;4.70;;;13.60;99.90;;;;;;5047760;28;20969;-76
2021/08/17 03:33:59;;;;;;;7.60;4.47;;;13.60;99.90;;;;;;5043465;28;20938;-76
2021/08/17 03:36:45;;;;;;;10.27;4.50;;;13.70;99.90;;;;;;5049581;28;20465;-76
2021/08/17 03:39:32;;;;;;;10.47;5.30;;;13.60;99.90;;;;;;5049455;28;20974;-76
2021/08/17 03:42:18;;;;;;;7.73;5.33;;;13.60;99.90;;;;;;5050954;28;20790;-76
2021/08/17 03:45:04;;;;;;;11.80;5.23;;;13.70;99.90;;;;;;5040943;28;20476;-76
2021/08/17 03:50:30;;;;;;;10.93;6.13;;;13.80;99.90;;;;;;5075263;27;20575;-75
2021/08/17 03:53:16;;;;;;;10.93;5.27;;;13.70;99.90;;;;;;5087431;28;20506;-75
2021/08/17 03:56:01;;;;;;;15.93;5.80;;;13.60;99.90;;;;;;5077183;28;20461;-75
2021/08/17 03:58:47;;;;;;;7.83;5.10;;;13.60;99.90;;;;;;5080322;28;20492;-75
2021/08/17 04:01:33;;;;;;;10.53;6.30;;;13.50;99.90;;;;;;5064527;28;20429;-75
2021/08/17 04:04:18;;;;;;;12.63;6.70;;;13.50;99.90;;;;;;5062324;28;20445;-75
2021/08/17 04:07:06;;;;;;;14.40;5.70;;;13.30;99.90;;;;;;5060837;28;20203;-75
2021/08/17 04:09:51;;;;;;;12.98;6.20;;;13.50;99.90;;;;;;5069075;28;20428;-75
2021/08/17 04:12:37;;;;;;;15.70;6.70;;;13.40;99.90;;;;;;5066159;28;20589;-75
2021/08/17 04:15:23;;;;;;;12.70;6.33;;;13.40;99.90;;;;;;5067693;28;20879;-75
2021/08/17 04:18:08;;;;;;;13.87;6.70;;;13.50;99.90;;;;;;5049095;28;20809;-75
2021/08/17 04:20:54;;;;;;;13.73;6.03;;;13.60;99.90;;;;;;5064546;28;20450;-74
2021/08/17 04:23:40;;;;;;;13.50;6.87;;;13.70;99.90;;;;;;5065511;28;21070;-75
2021/08/17 04:26:26;;;;;;;12.50;6.07;;;13.50;99.90;;;;;;5064465;28;20422;-75
2021/08/17 04:29:12;;;;;;;16.10;6.67;;;13.50;99.90;;;;;;5065856;28;20453;-75
2021/08/17 04:31:58;;;;;;;14.40;6.30;;;13.60;99.90;;;;;;5060198;28;20438;-75
2021/08/17 04:34:44;;;;;;;11.00;6.80;;;13.70;99.90;;;;;;5065796;28;20425;-75
2021/08/17 04:37:29;;;;;;;12.33;7.37;;;13.70;99.90;;;;;;5068064;28;20416;-75
2021/08/17 04:40:17;;;;;;;10.20;6.03;;;13.60;99.90;;;;;;5069913;28;20529;-75
2021/08/17 04:43:02;;;;;;;20.57;6.70;;;13.70;99.90;;;;;;5060264;28;20421;-75
2021/08/17 04:45:49;;;;;;;11.40;7.00;;;13.70;99.90;;;;;;5066723;28;20908;-75
2021/08/17 04:48:35;;;;;;;12.27;6.30;;;13.70;99.90;;;;;;5065043;28;20449;-75
2021/08/17 04:51:21;;;;;;;12.23;6.63;;;13.70;99.90;;;;;;5068093;28;20776;-75
2021/08/17 04:54:06;;;;;;;9.57;6.33;;;13.60;99.90;;;;;;5066608;28;20434;-75
2021/08/17 04:56:53;;;;;;;10.30;6.37;;;13.50;99.90;;;;;;5064138;28;20418;-74
2021/08/17 04:59:39;;;;;;;12.93;7.40;;;13.50;99.90;;;;;;5064859;28;20466;-75
2021/08/17 05:02:25;;;;;;;14.73;8.73;;;13.30;99.90;;;;;;5051054;28;20928;-75
2021/08/17 05:05:11;;;;;;;14.77;7.60;;;13.40;99.90;;;;;;5048168;28;20805;-75
2021/08/17 05:07:56;;;;;;;19.42;9.50;;;13.50;99.90;;;;;;5045660;28;20875;-75
2021/08/17 05:10:42;;;;;;;16.17;8.27;;;13.30;99.90;;;;;;5051276;28;20283;-75
2021/08/17 05:13:29;;;;;;;15.00;8.20;;;13.30;99.90;;;;;;5052587;28;20414;-75
2021/08/17 05:16:14;;;;;;;12.40;7.00;;;13.30;99.90;;;;;;5049655;28;20456;-74
2021/08/17 05:19:00;;;;;;;16.13;7.50;;;13.40;99.90;;;;;;5045519;28;20438;-74
2021/08/17 05:21:45;;;;;;;13.43;8.37;;;13.20;99.90;;;;;;5052460;28;20927;-74
2021/08/17 05:24:31;;;;;;;13.83;7.57;;;13.40;99.90;;;;;;5053501;28;20401;-74
2021/08/17 05:27:17;;;;;;;12.00;7.73;;;13.40;99.90;;;;;;5048626;28;20583;-74
2021/08/17 05:30:05;;;;;;;12.73;7.67;;;13.50;99.90;;;;;;5048183;28;20475;-74
2021/08/17 05:32:52;;;;;;;14.63;8.13;;;13.70;99.90;;;;;;5052237;28;20434;-74
2021/08/17 05:35:38;;;;;;;19.20;7.67;;;13.90;99.90;;;;;;5045361;28;20433;-75
2021/08/17 05:38:24;;;;;;;12.23;7.50;;;13.90;99.90;;;;;;5050365;28;20822;-74
2021/08/17 05:41:09;;;;;;;14.60;7.00;;;14.00;99.90;;;;;;5056513;28;20414;-73
2021/08/17 05:43:55;;;;;;;15.10;8.93;;;14.10;99.90;;;;;;5053451;28;20391;-72
2021/08/17 05:46:42;;;;;;;18.87;9.13;;;14.20;99.90;;;;;;5051555;28;20402;-73
2021/08/17 05:49:28;;;;;;;19.73;8.90;;;14.30;99.90;;;;;;5051479;28;20469;-72
2021/08/17 05:52:15;;;;;;;16.43;8.60;;;14.30;99.90;;;;;;5047141;28;20462;-73
2021/08/17 05:55:04;;;;;;;15.80;8.40;;;14.30;99.90;;;;;;5052772;28;20427;-73
2021/08/17 05:57:57;;;;;;;19.20;8.00;;;14.50;99.90;;;;;;5052298;28;20454;-72
2021/08/17 06:00:43;;;;;;;15.93;8.30;;;14.60;99.90;;;;;;5051373;28;20578;-73
2021/08/17 06:03:30;;;;;;;14.80;8.80;;;14.50;99.90;;;;;;5052842;28;20953;-74
2021/08/17 06:06:16;;;;;;;19.90;9.23;;;14.40;99.90;;;;;;5052626;28;20915;-76
2021/08/17 06:09:02;;;;;;;19.00;9.43;;;14.50;99.90;;;;;;5053128;28;20457;-75
2021/08/17 06:11:48;;;;;;;19.30;10.00;;;14.50;99.90;;;;;;5052483;28;20443;-75
2021/08/17 06:14:35;;;;;;;15.30;8.60;;;14.60;99.90;;;;;;5052249;28;20583;-76
2021/08/17 06:17:21;;;;;;;14.20;8.97;;;14.70;99.90;;;;;;5052670;28;20406;-76
2021/08/17 06:20:09;;;;;;;22.83;10.07;;;14.60;99.90;;;;;;5051341;28;20779;-75
2021/08/17 06:22:55;;;;;;;19.07;10.20;;;14.60;99.90;;;;;;5052855;28;20399;-75
2021/08/17 06:25:41;;;;;;;20.70;9.57;;;14.70;99.90;;;;;;5052305;28;20425;-76
2021/08/17 06:28:27;;;;;;;19.93;9.83;;;14.90;99.90;;;;;;5052671;28;20435;-76
2021/08/17 06:31:17;;;;;;;12.73;8.50;;;15.00;99.90;;;;;;5052408;28;20425;-76
2021/08/17 06:34:02;;;;;;;19.20;9.70;;;15.00;99.90;;;;;;5052557;28;20904;-75
2021/08/17 06:36:50;;;;;;;18.10;10.47;;;15.00;99.90;;;;;;5052145;28;20416;-76
2021/08/17 06:39:35;;;;;;;13.60;8.90;;;15.10;99.90;;;;;;5056386;28;20421;-76
2021/08/17 06:42:21;;;;;;;13.63;8.80;;;15.00;99.90;;;;;;5050005;28;20462;-75
2021/08/17 06:45:08;;;;;;;20.43;10.53;;;15.00;99.90;;;;;;5031896;28;20894;-76
2021/08/17 06:47:56;;;;;;;17.70;10.07;;;15.10;99.90;;;;;;5032486;28;20945;-76
2021/08/17 06:50:42;;;;;;;17.87;9.60;;;15.10;99.90;;;;;;5032425;28;20543;-76
2021/08/17 06:53:29;;;;;;;19.67;10.77;;;15.20;99.90;;;;;;5032270;28;20396;-76
2021/08/17 06:56:15;;;;;;;15.40;9.40;;;15.20;99.90;;;;;;5032061;28;20510;-76
2021/08/17 06:59:01;;;;;;;16.77;10.40;;;15.30;99.90;;;;;;5032290;28;20969;-76
2021/08/17 07:01:46;;;;;;;22.70;12.03;;;15.30;99.90;;;;;;5032032;28;20401;-76
2021/08/17 07:04:33;;;;;;;20.87;10.70;;;15.30;99.90;;;;;;5031774;28;20497;-76
2021/08/17 07:07:18;;;;;;;19.77;10.93;;;15.20;99.90;;;;;;5031923;28;20504;-75
2021/08/17 07:10:07;;;;;;;17.33;11.33;;;15.20;99.90;;;;;;5051001;28;20487;-76
2021/08/17 07:12:52;;;;;;;19.33;11.70;;;15.20;99.90;;;;;;5043627;28;20854;-75
2021/08/17 07:15:38;;;;;;;17.90;10.60;;;15.10;99.90;;;;;;5051929;28;20428;-75
2021/08/17 07:18:24;;;;;;;19.60;10.80;;;15.30;99.90;;;;;;5049198;28;21016;-75
2021/08/17 07:21:09;;;;;;;21.07;11.13;;;15.20;99.90;;;;;;5032609;28;20411;-76
2021/08/17 07:23:55;;;;;;;20.70;11.83;;;15.20;99.90;;;;;;5032226;28;20552;-76
2021/08/17 07:26:41;;;;;;;21.73;12.23;;;15.20;99.90;;;;;;5032463;28;20534;-76
2021/08/17 07:29:27;;;;;;;21.10;12.00;;;15.30;99.90;;;;;;5033017;28;20493;-77
2021/08/17 07:32:13;;;;;;;19.73;11.13;;;15.30;99.90;;;;;;5033150;28;20395;-76
2021/08/17 07:34:58;;;;;;;16.73;10.50;;;15.20;99.90;;;;;;5032950;28;20909;-76
2021/08/17 07:37:45;;;;;;;22.87;10.57;;;15.30;99.90;;;;;;5032531;28;20779;-76
2021/08/17 07:40:32;;;;;;;19.43;10.60;;;15.40;99.90;;;;;;5049166;28;20486;-77
2021/08/17 07:43:19;;;;;;;17.63;10.80;;;15.50;99.90;;;;;;5052660;28;20407;-76
2021/08/17 07:46:04;;;;;;;19.20;10.70;;;15.60;99.90;;;;;;5053183;28;20751;-76
2021/08/17 07:48:50;;;;;;;20.90;11.33;;;15.50;99.90;;;;;;5053255;28;20497;-76
2021/08/17 07:51:35;;;;;;;19.20;10.80;;;15.60;99.90;;;;;;5051992;28;20527;-77
2021/08/17 07:54:22;;;;;;;16.73;11.07;;;15.80;99.90;;;;;;5053102;28;20439;-76
2021/08/17 07:57:07;;;;;;;18.03;10.70;;;15.90;99.90;;;;;;5053894;28;20432;-77
2021/08/17 07:59:54;;;;;;;17.98;11.30;;;16.10;99.90;;;;;;5053381;28;20582;-76
2021/08/17 08:02:40;;;;;;;22.37;9.57;;;16.30;99.90;;;;;;5053659;28;20273;-76
2021/08/17 08:05:26;;;;;;;20.43;10.10;;;16.30;99.90;;;;;;5043887;28;21017;-76
2021/08/17 08:08:11;;;;;;;19.43;10.80;;;16.10;99.90;;;;;;5033667;28;20512;-76
2021/08/17 08:10:57;;;;;;;18.00;10.20;;;16.20;99.90;;;;;;5053173;28;20529;-76
2021/08/17 08:13:43;;;;;;;18.97;10.43;;;16.20;99.90;;;;;;5053665;28;20426;-75
2021/08/17 08:16:30;;;;;;;14.60;10.07;;;16.30;99.90;;;;;;5053037;28;20470;-76
2021/08/17 08:19:15;;;;;;;18.60;9.63;;;16.40;99.90;;;;;;5043118;28;20465;-76
2021/08/17 08:22:01;;;;;;;17.20;10.30;;;16.60;99.90;;;;;;5032580;28;20939;-76
2021/08/17 08:24:47;;;;;;;16.33;9.23;;;16.70;99.90;;;;;;5032821;28;20560;-76
2021/08/17 08:27:33;;;;;;;18.07;9.87;;;16.80;99.90;;;;;;5037388;28;20452;-77
2021/08/17 08:30:19;;;;;;;17.50;9.20;;;17.00;99.90;;;;;;5050468;28;20588;-77
2021/08/17 08:33:06;;;;;;;16.33;9.60;;;16.90;99.90;;;;;;5047339;28;20467;-76
2021/08/17 08:35:52;;;;;;;16.90;10.27;;;17.00;99.90;;;;;;5050796;28;20773;-76
2021/08/17 08:38:38;;;;;;;15.70;10.13;;;17.00;99.90;;;;;;5058356;28;20421;-77
2021/08/17 08:41:23;;;;;;;18.08;10.63;;;17.00;99.90;;;;;;5056980;28;20475;-76
2021/08/17 08:44:09;;;;;;;16.50;10.03;;;17.20;99.90;;;;;;5058140;28;20256;-77
2021/08/17 08:46:55;;;;;;;17.35;10.38;;;17.40;99.90;;;;;;5048692;28;20442;-78
2021/08/17 08:49:43;;;;;;;16.30;9.93;;;17.40;99.90;;;;;;5052628;28;20233;-77
2021/08/17 08:52:30;;;;;;;14.20;9.30;;;17.50;99.90;;;;;;5054695;28;20435;-76
2021/08/17 08:55:15;;;;;;;20.27;9.50;;;17.40;99.90;;;;;;5054393;28;20464;-77
2021/08/17 08:58:01;;;;;;;17.20;10.67;;;17.40;99.90;;;;;;5055101;28;20464;-77
2021/08/17 09:00:46;;;;;;;18.43;10.23;;;17.20;99.90;;;;;;5054915;28;20568;-77
2021/08/17 09:03:43;;;;;;;17.50;9.57;;;17.00;99.90;;;;;;5052339;28;21090;-77
2021/08/17 09:06:32;;;;;;;18.80;10.20;;;16.90;99.90;;;;;;5055052;28;20524;-76
2021/08/17 09:09:18;;;;;;;19.60;10.43;;;16.90;99.90;;;;;;5052133;28;20937;-76
2021/08/17 09:12:04;;;;;;;26.27;15.70;;;17.00;99.90;;;;;;5052534;28;20444;-76
2021/08/17 09:15:06;;;;;;;17.57;10.43;;;17.10;99.90;;;;;;5052107;28;20451;-76
2021/08/17 09:18:01;;;;;;;16.93;9.57;;;17.20;99.90;;;;;;5049889;28;20441;-76
2021/08/17 09:20:48;;;;;;;16.07;9.97;;;17.20;99.90;;;;;;5053418;28;20427;-77
2021/08/17 09:23:37;;;;;;;14.10;9.40;;;17.20;99.90;;;;;;5053686;28;20820;-77
2021/08/17 09:26:26;;;;;;;17.63;9.20;;;17.10;99.90;;;;;;5052366;28;20822;-75
2021/08/17 09:29:20;;;;;;;13.75;9.15;;;17.10;99.90;;;;;;5047794;28;20498;-77
2021/08/17 09:32:16;;;;;;;15.37;10.63;;;17.10;99.90;;;;;;5052264;28;20288;-76
2021/08/17 09:35:03;;;;;;;16.07;8.97;;;17.30;99.90;;;;;;5050694;28;20457;-77
2021/08/17 09:38:06;;;;;;;20.50;9.40;;;17.30;99.90;;;;;;5054203;28;20495;-76
2021/08/17 09:40:53;;;;;;;13.80;9.70;;;17.20;99.90;;;;;;5053328;28;20420;-76
2021/08/17 09:43:39;;;;;;;17.30;9.53;;;17.20;99.90;;;;;;5050496;28;20452;-76
2021/08/17 09:46:30;;;;;;;17.43;9.77;;;17.20;99.90;;;;;;5047435;28;20591;-77
2021/08/17 09:49:26;;;;;;;17.77;9.47;;;17.00;99.90;;;;;;5050032;28;20483;-77
2021/08/17 09:52:14;;;;;;;16.33;9.50;;;17.00;99.90;;;;;;5053529;28;20510;-76
2021/08/17 09:54:59;;;;;;;17.37;9.93;;;16.80;99.90;;;;;;5049792;28;20430;-76
2021/08/17 09:57:47;;;;;;;14.63;9.17;;;16.60;99.90;;;;;;5053808;28;20896;-74
2021/08/17 10:00:33;;;;;;;15.73;10.20;;;16.70;99.90;;;;;;5051885;28;20429;-74
2021/08/17 10:03:20;;;;;;;19.10;10.60;;;16.80;99.90;;;;;;5053337;28;20816;-75
2021/08/17 10:06:05;;;;;;;15.17;9.17;;;16.90;99.90;;;;;;5052917;28;20399;-74
2021/08/17 10:08:52;;;;;;;15.13;9.50;;;16.90;99.90;;;;;;5052812;28;20456;-74
2021/08/17 10:11:38;;;;;;;15.20;10.07;;;16.90;99.90;;;;;;5053047;28;20443;-73
2021/08/17 10:14:25;;;;;;;14.27;9.23;;;17.00;99.90;;;;;;5051943;28;20478;-75
2021/08/17 10:17:11;;;;;;;15.25;10.10;;;17.00;99.90;;;;;;5046371;28;20414;-74
2021/08/17 10:19:57;;;;;;;16.00;10.50;;;17.10;99.90;;;;;;5050519;28;20300;-75
2021/08/17 10:22:42;;;;;;;18.90;10.90;;;17.00;99.90;;;;;;5050775;28;20594;-74
2021/08/17 10:25:42;;;;;;;17.50;10.60;;;17.00;99.90;;;;;;5051954;28;20461;-74
2021/08/17 10:28:33;;;;;;;15.30;9.70;;;16.90;99.90;;;;;;5052864;28;20475;-74
2021/08/17 10:31:25;;;;;;;15.03;10.53;;;17.00;99.90;;;;;;5052204;28;20471;-75
2021/08/17 10:34:12;;;;;;;14.13;9.47;;;17.00;99.90;;;;;;5048363;28;20802;-72
2021/08/17 10:37:17;;;;;;;17.67;11.00;;;17.10;99.90;;;;;;5052111;28;20933;-73
2021/08/17 10:40:04;;;;;;;17.33;9.80;;;17.00;99.90;;;;;;5054824;28;20463;-73
2021/08/17 10:42:52;;;;;;;15.13;9.63;;;17.00;99.90;;;;;;5052238;28;20442;-73
2021/08/17 10:45:51;;;;;;;17.37;11.10;;;17.10;99.90;;;;;;5052105;28;20420;-74
2021/08/17 10:48:58;;;;;;;16.00;9.00;;;17.50;99.90;;;;;;5046661;28;21013;-73
2021/08/17 10:51:51;;;;;;;18.70;10.50;;;17.70;99.90;;;;;;5052009;28;20464;-73
2021/08/17 10:54:38;;;;;;;16.80;10.27;;;17.70;99.90;;;;;;5052147;28;20424;-74
2021/08/17 10:57:25;;;;;;;18.80;10.43;;;17.80;99.90;;;;;;5036774;28;20579;-73
2021/08/17 11:00:11;;;;;;;16.77;10.25;;;17.90;99.90;;;;;;5054670;28;20857;-75
2021/08/17 11:02:58;;;;;;;15.68;9.70;;;17.70;99.90;;;;;;5051710;28;20442;-75
2021/08/17 11:05:52;;;;;;;12.13;8.63;;;17.80;99.90;;;;;;5055587;28;20739;-76
2021/08/17 11:08:40;;;;;;;14.97;9.63;;;18.00;99.90;;;;;;5054548;28;20448;-75
2021/08/17 11:11:25;;;;;;;20.50;10.80;;;18.30;99.90;;;;;;5053229;28;20577;-76
2021/08/17 11:14:14;;;;;;;16.70;9.63;;;18.50;99.90;;;;;;5050993;28;20404;-75
2021/08/17 11:17:01;;;;;;;14.77;9.40;;;18.40;99.90;;;;;;5058301;28;20933;-75
2021/08/17 11:19:48;;;;;;;15.73;10.20;;;18.30;99.90;;;;;;5054184;28;20810;-75
2021/08/17 11:22:36;;;;;;;14.37;9.70;;;18.20;99.90;;;;;;5052877;28;20415;-75
2021/08/17 11:25:22;;;;;;;13.47;8.87;;;18.30;99.90;;;;;;5052969;28;20445;-76
2021/08/17 11:28:07;;;;;;;11.40;8.77;;;18.20;99.90;;;;;;5055291;28;20949;-75
2021/08/17 11:30:54;;;;;;;15.17;10.13;;;18.50;99.90;;;;;;5054920;28;20465;-76
2021/08/17 11:33:40;;;;;;;14.70;8.47;;;18.90;99.90;;;;;;5056735;28;20429;-75
2021/08/17 11:36:25;;;;;;;12.53;8.20;;;19.30;93.00;;;;;;5052105;28;20456;-75
2021/08/17 11:39:21;;;;;;;10.50;7.73;;;19.60;92.40;;;;;;5051379;28;20548;-75
2021/08/17 11:42:17;;;;;;;10.87;7.00;;;19.90;87.70;;;;;;5047851;28;20441;-76
2021/08/17 11:45:05;;;;;;;10.35;6.68;;;19.80;64.80;;;;;;5049125;28;20421;-75
2021/08/17 11:47:52;;;;;;;10.10;7.40;;;19.80;67.70;;;;;;5053910;28;20206;-75
2021/08/17 11:50:38;;;;;;;9.70;6.93;;;19.80;62.40;;;;;;5053335;28;20526;-75
2021/08/17 11:53:24;;;;;;;8.80;6.73;;;19.70;63.30;;;;;;5055970;28;20454;-75
2021/08/17 11:56:19;;;;;;;12.17;7.57;;;19.70;72.80;;;;;;5051475;28;20421;-75
2021/08/17 11:59:05;;;;;;;22.97;8.93;;;19.80;71.60;;;;;;5055324;28;20502;-76
2021/08/17 12:02:02;;;;;;;12.23;7.00;;;19.80;71.40;;;;;;5069438;28;20424;-75
2021/08/17 12:04:56;;;;;;;9.23;6.70;;;19.70;67.50;;;;;;5063839;28;20437;-76
2021/08/17 12:07:43;;;;;;;8.40;6.07;;;19.70;64.60;;;;;;5058751;28;20800;-76
2021/08/17 12:10:32;;;;;;;9.87;6.37;;;19.70;66.70;;;;;;5061657;28;20467;-75
2021/08/17 12:13:24;;;;;;;11.37;6.70;;;19.70;64.70;;;;;;5061570;28;20456;-74
2021/08/17 12:16:10;;;;;;;12.53;7.50;;;19.50;64.20;;;;;;5055899;28;20412;-75
2021/08/17 12:18:56;;;;;;;11.27;7.00;;;19.40;66.80;;;;;;5059582;28;20890;-76
2021/08/17 12:21:42;;;;;;;12.30;7.90;;;19.40;63.80;;;;;;5060348;28;20450;-76
2021/08/17 12:24:28;;;;;;;10.07;6.97;;;19.30;64.80;;;;;;5057541;28;20444;-75
2021/08/17 12:27:25;;;;;;;14.83;7.80;;;19.40;69.30;;;;;;5061978;28;20613;-76
2021/08/17 12:30:26;;;;;;;10.77;6.50;;;19.40;71.50;;;;;;5059658;28;20465;-75
2021/08/17 12:33:11;;;;;;;14.43;8.10;;;19.40;67.50;;;;;;5050780;28;20483;-75
2021/08/17 12:35:57;;;;;;;11.13;7.37;;;19.30;65.30;;;;;;5054088;28;20469;-75
2021/08/17 12:38:43;;;;;;;11.03;7.33;;;19.20;69.00;;;;;;5061451;28;20450;-75
2021/08/17 12:41:31;;;;;;;12.43;7.43;;;19.20;70.60;;;;;;5057683;28;20412;-75
2021/08/17 12:44:22;;;;;;;9.40;6.43;;;19.10;66.10;;;;;;5050757;28;20865;-74
2021/08/17 12:47:12;;;;;;;10.33;6.97;;;19.10;70.40;;;;;;5040973;28;20435;-75
2021/08/17 12:50:01;;;;;;;12.33;7.27;;;19.00;69.70;;;;;;5045497;28;20516;-74
2021/08/17 12:52:50;;;;;;;14.77;6.50;;;19.00;74.70;;;;;;5053121;28;20456;-73
2021/08/17 12:55:35;;;;;;;8.10;5.37;;;19.00;67.70;;;;;;5053397;28;20591;-74
2021/08/17 12:58:22;;;;;;;10.73;6.90;;;18.90;68.30;;;;;;5053946;28;20444;-73
2021/08/17 13:01:07;;;;;;;12.03;7.30;;;18.90;70.60;;;;;;5051130;28;20690;-74
2021/08/17 13:03:56;;;;;;;9.90;7.17;;;18.80;75.80;;;;;;5038858;28;20793;-74
2021/08/17 13:06:41;;;;;;;12.07;7.80;;;18.80;74.40;;;;;;5053089;28;20400;-75
2021/08/17 13:09:27;;;;;;;9.13;6.40;;;18.80;76.10;;;;;;5049932;28;20498;-74
2021/08/17 13:12:13;;;;;;;10.67;7.50;;;18.60;77.80;;;;;;5052645;28;20469;-75
2021/08/17 13:14:59;;;;;;;15.70;8.17;;;18.60;82.80;;;;;;5044619;28;20555;-75
2021/08/17 13:17:45;;;;;;;9.27;6.60;;;18.60;85.50;;;;;;5052516;28;20441;-75
2021/08/17 13:20:32;;;;;;;15.33;8.17;;;18.60;79.80;;;;;;5053046;28;20518;-75
2021/08/17 13:23:18;;;;;;;12.90;7.77;;;18.50;82.70;;;;;;5033629;28;20385;-74
2021/08/17 13:26:04;;;;;;;13.63;7.83;;;18.50;86.60;;;;;;5053102;28;20500;-74
2021/08/17 13:28:50;;;;;;;12.10;7.43;;;18.50;85.70;;;;;;5053540;28;21077;-73
2021/08/17 13:31:35;;;;;;;11.70;7.30;;;18.50;87.00;;;;;;5053684;28;20843;-74
2021/08/17 13:34:22;;;;;;;10.98;6.75;;;18.50;78.80;;;;;;5052733;28;20427;-75
2021/08/17 13:37:09;;;;;;;11.67;7.40;;;18.50;81.70;;;;;;5053653;28;20205;-75
2021/08/17 13:39:55;;;;;;;12.10;7.50;;;18.60;89.70;;;;;;5045094;28;20969;-75
2021/08/17 13:42:41;;;;;;;11.37;7.10;;;18.80;86.60;;;;;;5053063;28;20929;-75
2021/08/17 13:45:26;;;;;;;16.70;8.00;;;18.80;84.50;;;;;;5052888;28;20607;-73
2021/08/17 13:48:12;;;;;;;11.70;7.00;;;18.80;85.50;;;;;;5069237;22;20437;-72
2021/08/17 13:50:58;;;;;;;9.40;6.20;;;18.90;77.90;;;;;;5012260;28;20405;-72
2021/08/17 13:53:47;;;;;;;11.80;6.80;;;18.80;83.50;;;;;;5013728;28;20514;-72
2021/08/17 13:56:33;;;;;;;10.60;6.83;;;18.80;89.20;;;;;;5012746;28;20447;-72
2021/08/17 13:59:19;;;;;;;10.30;6.90;;;18.70;92.30;;;;;;5010720;28;20476;-72
2021/08/17 14:02:06;;;;;;;11.03;6.30;;;18.70;91.30;;;;;;4996058;28;20419;-72
2021/08/17 14:04:52;;;;;;;8.87;5.80;;;18.70;90.80;;;;;;5012756;28;20502;-72
2021/08/17 14:07:40;;;;;;;10.48;5.93;;;18.70;71.00;;;;;;5012496;28;20422;-72
2021/08/17 14:10:27;;;;;;;11.88;7.57;;;18.60;70.00;;;;;;5014502;28;20457;-72
2021/08/17 14:13:13;;;;;;;10.07;6.37;;;18.70;71.10;;;;;;5006655;28;20243;-72
2021/08/17 14:16:02;;;;;;;8.57;5.87;;;18.80;75.70;;;;;;5005219;28;20929;-73
2021/08/17 14:18:48;;;;;;;10.63;6.73;;;18.90;72.60;;;;;;5010447;28;20477;-72
2021/08/17 14:21:34;;;;;;;10.60;7.33;;;18.90;71.90;;;;;;5013717;28;20470;-72